createdAt,value
2022-11-12T00:00:50.102Z,2.55
2022-11-12T00:03:16.848Z,2.92
2022-11-12T00:05:45.232Z,2.33
2022-11-12T00:08:11.871Z,2.20
2022-11-12T00:10:38.957Z,2.63
2022-11-12T00:13:06.286Z,2.33
2022-11-12T00:15:33.103Z,2.00
2022-11-12T00:17:59.767Z,2.25
2022-11-12T00:20:26.396Z,1.80
2022-11-12T00:22:53.062Z,2.40
2022-11-12T00:25:19.774Z,2.17
2022-11-12T00:27:46.524Z,1.63
2022-11-12T00:30:13.392Z,1.88
2022-11-12T00:32:40.293Z,1.80
2022-11-12T00:35:12.447Z,1.80
2022-11-12T00:37:40.329Z,1.70
2022-11-12T00:40:07.788Z,1.67
2022-11-12T00:42:34.424Z,1.85
2022-11-12T00:45:01.064Z,1.77
2022-11-12T00:47:28.081Z,1.52
2022-11-12T00:49:54.754Z,1.77
2022-11-12T00:52:21.597Z,1.60
2022-11-12T00:54:49.148Z,1.60
2022-11-12T00:57:15.786Z,1.60
2022-11-12T00:59:42.528Z,1.70
2022-11-12T01:02:09.476Z,1.70
2022-11-12T01:04:36.120Z,1.23
2022-11-12T01:07:02.809Z,1.25
2022-11-12T01:09:29.591Z,1.70
2022-11-12T01:11:56.441Z,1.55
2022-11-12T01:14:23.179Z,1.60
2022-11-12T01:16:50.224Z,1.30
2022-11-12T01:19:16.928Z,1.50
2022-11-12T01:21:44.420Z,1.60
2022-11-12T01:24:11.492Z,1.60
2022-11-12T01:26:39.139Z,1.65
2022-11-12T01:29:06.381Z,1.45
2022-11-12T01:31:35.181Z,1.40
2022-11-12T01:34:04.671Z,1.90
2022-11-12T01:36:34.386Z,1.35
2022-11-12T01:39:01.329Z,1.65
2022-11-12T01:41:30.828Z,1.50
2022-11-12T01:44:21.028Z,1.40
2022-11-12T01:46:59.573Z,1.25
2022-11-12T01:49:30.428Z,1.77
2022-11-12T01:51:59.464Z,1.65
2022-11-12T01:54:26.532Z,2.47
2022-11-12T01:56:53.419Z,1.83
2022-11-12T01:59:27.472Z,1.98
2022-11-12T02:01:54.250Z,1.58
2022-11-12T02:04:21.114Z,1.48
2022-11-12T02:06:48.605Z,1.40
2022-11-12T02:09:15.388Z,1.85
2022-11-12T02:11:41.959Z,1.48
2022-11-12T02:14:08.649Z,2.00
2022-11-12T02:16:43.617Z,1.40
2022-11-12T02:19:12.672Z,1.77
2022-11-12T02:21:39.633Z,1.90
2022-11-12T02:24:12.334Z,1.70
2022-11-12T02:26:42.117Z,1.80
2022-11-12T02:29:09.226Z,1.52
2022-11-12T02:31:36.356Z,1.50
2022-11-12T02:34:03.043Z,1.80
2022-11-12T02:36:30.087Z,1.70
2022-11-12T02:38:56.869Z,2.05
2022-11-12T02:41:23.741Z,1.55
2022-11-12T02:43:50.426Z,1.52
2022-11-12T02:46:17.434Z,2.03
2022-11-12T02:48:44.579Z,1.60
2022-11-12T02:51:11.251Z,1.92
2022-11-12T02:53:37.888Z,1.90
2022-11-12T02:56:04.939Z,1.77
2022-11-12T02:58:31.751Z,1.80
2022-11-12T03:00:58.625Z,1.45
2022-11-12T03:03:25.351Z,1.42
2022-11-12T03:06:00.063Z,1.48
2022-11-12T03:08:27.650Z,2.05
2022-11-12T03:10:55.033Z,1.77
2022-11-12T03:13:21.813Z,2.05
2022-11-12T03:15:48.665Z,2.10
2022-11-12T03:18:15.560Z,1.85
2022-11-12T03:20:42.242Z,1.85
2022-11-12T03:23:11.209Z,1.60
2022-11-12T03:25:38.200Z,1.80
2022-11-12T03:28:08.910Z,1.90
2022-11-12T03:30:38.380Z,1.20
2022-11-12T03:33:06.212Z,2.03
2022-11-12T03:35:33.919Z,1.50
2022-11-12T03:38:01.325Z,2.00
2022-11-12T03:40:28.484Z,2.65
2022-11-12T03:42:55.254Z,1.92
2022-11-12T03:45:23.035Z,2.25
2022-11-12T03:47:52.025Z,1.70
2022-11-12T03:50:20.566Z,2.00
2022-11-12T03:52:48.402Z,1.70
2022-11-12T03:55:16.529Z,2.20
2022-11-12T03:57:44.716Z,1.73
2022-11-12T04:00:12.876Z,1.40
2022-11-12T04:02:39.485Z,1.75
2022-11-12T04:05:25.939Z,1.83
2022-11-12T04:08:25.377Z,1.50
2022-11-12T04:10:52.579Z,1.90
2022-11-12T04:13:28.313Z,1.65
2022-11-12T04:16:16.663Z,1.63
2022-11-12T04:19:03.050Z,1.70
2022-11-12T04:21:52.518Z,1.70
2022-11-12T04:24:45.314Z,1.70
2022-11-12T04:27:23.683Z,1.60
2022-11-12T04:30:10.114Z,2.00
2022-11-12T04:32:40.477Z,1.90
2022-11-12T04:35:08.757Z,1.83
2022-11-12T04:37:45.562Z,1.88
2022-11-12T04:40:39.769Z,1.73
2022-11-12T04:43:26.962Z,2.03
2022-11-12T04:45:54.443Z,1.77
2022-11-12T04:48:23.033Z,2.10
2022-11-12T04:50:59.989Z,1.90
2022-11-12T04:53:27.462Z,1.90
2022-11-12T04:55:56.153Z,2.08
2022-11-12T04:58:23.406Z,1.88
2022-11-12T05:00:50.931Z,1.85
2022-11-12T05:03:18.323Z,2.25
2022-11-12T05:05:45.002Z,2.08
2022-11-12T05:08:11.783Z,1.70
2022-11-12T05:10:38.536Z,2.05
2022-11-12T05:13:05.275Z,1.83
2022-11-12T05:15:31.893Z,1.75
2022-11-12T05:17:58.597Z,2.05
2022-11-12T05:20:25.318Z,2.10
2022-11-12T05:23:05.597Z,2.53
2022-11-12T05:25:33.636Z,2.38
2022-11-12T05:28:00.414Z,2.15
2022-11-12T05:30:27.098Z,2.55
2022-11-12T05:32:53.889Z,2.33
2022-11-12T05:35:20.530Z,2.35
2022-11-12T05:37:47.231Z,2.40
2022-11-12T05:40:14.068Z,2.20
2022-11-12T05:42:40.809Z,2.22
2022-11-12T05:45:08.364Z,2.00
2022-11-12T05:47:35.110Z,1.80
2022-11-12T05:50:01.843Z,2.10
2022-11-12T05:52:28.586Z,2.65
2022-11-12T05:54:57.849Z,2.28
2022-11-12T05:57:27.590Z,2.72
2022-11-12T05:59:54.340Z,2.50
2022-11-12T06:02:21.049Z,2.33
2022-11-12T06:04:47.720Z,3.17
2022-11-12T06:07:14.428Z,2.17
2022-11-12T06:09:41.156Z,1.88
2022-11-12T06:12:08.661Z,3.03
2022-11-12T06:14:35.511Z,2.08
2022-11-12T06:17:05.307Z,1.90
2022-11-12T06:19:31.951Z,2.42
2022-11-12T06:21:58.619Z,2.53
2022-11-12T06:24:27.544Z,2.33
2022-11-12T06:27:00.989Z,2.05
2022-11-12T06:29:28.180Z,1.92
2022-11-12T06:31:54.806Z,2.38
2022-11-12T06:34:21.913Z,2.58
2022-11-12T06:36:49.631Z,2.55
2022-11-12T06:39:16.373Z,2.95
2022-11-12T06:41:43.152Z,2.50
2022-11-12T06:44:09.929Z,2.70
2022-11-12T06:46:36.860Z,2.78
2022-11-12T06:49:03.778Z,2.50
2022-11-12T06:51:30.661Z,2.53
2022-11-12T06:53:57.370Z,2.47
2022-11-12T06:56:24.247Z,2.90
2022-11-12T06:58:50.958Z,2.70
2022-11-12T07:01:18.279Z,3.00
2022-11-12T07:03:45.628Z,2.72
2022-11-12T07:06:15.334Z,2.35
2022-11-12T07:08:42.691Z,2.08
2022-11-12T07:11:10.065Z,3.00
2022-11-12T07:13:37.708Z,2.58
2022-11-12T07:16:06.285Z,2.25
2022-11-12T07:18:34.150Z,2.63
2022-11-12T07:21:02.758Z,2.15
2022-11-12T07:23:31.602Z,1.95
2022-11-12T07:26:03.898Z,2.85
2022-11-12T07:28:31.166Z,3.05
2022-11-12T07:30:59.727Z,2.97
2022-11-12T07:33:27.289Z,3.28
2022-11-12T07:36:04.777Z,2.65
2022-11-12T07:38:33.783Z,3.10
2022-11-12T07:41:04.399Z,2.83
2022-11-12T07:43:31.975Z,2.70
2022-11-12T07:46:11.407Z,2.83
2022-11-12T07:48:38.972Z,3.33
2022-11-12T07:51:08.167Z,2.60
2022-11-12T07:53:35.135Z,2.65
2022-11-12T07:56:04.613Z,2.97
2022-11-12T07:58:33.116Z,2.50
2022-11-12T08:01:09.012Z,3.47
2022-11-12T08:03:35.902Z,2.63
2022-11-12T08:06:02.840Z,3.33
2022-11-12T08:08:30.098Z,3.22
2022-11-12T08:10:59.100Z,3.20
2022-11-12T08:13:26.131Z,3.30
2022-11-12T08:15:56.540Z,2.90
2022-11-12T08:18:25.883Z,3.22
2022-11-12T08:20:53.217Z,2.83
2022-11-12T08:23:20.059Z,2.97
2022-11-12T08:25:47.549Z,2.90
2022-11-12T08:28:16.933Z,2.63
2022-11-12T08:30:43.764Z,3.05
2022-11-12T08:33:10.494Z,2.90
2022-11-12T08:35:38.272Z,3.10
2022-11-12T08:38:07.767Z,3.17
2022-11-12T08:40:35.954Z,2.85
2022-11-12T08:43:08.953Z,3.20
2022-11-12T08:45:39.134Z,3.38
2022-11-12T08:48:08.741Z,3.15
2022-11-12T08:50:36.093Z,3.38
2022-11-12T08:53:10.849Z,3.08
2022-11-12T08:55:37.869Z,3.60
2022-11-12T08:58:06.193Z,3.63
2022-11-12T09:00:36.387Z,3.67
2022-11-12T09:03:04.725Z,4.18
2022-11-12T09:05:31.770Z,4.40
2022-11-12T09:08:03.893Z,4.35
2022-11-12T09:10:31.216Z,4.28
2022-11-12T09:12:58.026Z,4.47
2022-11-12T09:15:41.486Z,4.55
2022-11-12T09:18:12.201Z,6.22
2022-11-12T09:20:39.096Z,7.57
2022-11-12T09:23:11.352Z,7.20
2022-11-12T09:25:38.787Z,5.57
2022-11-12T09:28:09.933Z,6.00
2022-11-12T09:30:38.226Z,6.80
2022-11-12T09:33:05.197Z,7.90
2022-11-12T09:35:32.103Z,8.82
2022-11-12T09:37:59.766Z,9.38
2022-11-12T09:41:08.731Z,11.93
2022-11-12T09:43:40.750Z,10.48
2022-11-12T09:46:27.538Z,11.32
2022-11-12T09:49:03.185Z,11.65
2022-11-12T09:51:35.521Z,11.88
2022-11-12T09:54:18.515Z,13.07
2022-11-12T09:56:45.474Z,12.70
2022-11-12T09:59:13.652Z,13.02
2022-11-12T10:01:53.864Z,13.32
2022-11-12T10:04:58.132Z,12.63
2022-11-12T10:07:49.118Z,11.95
2022-11-12T10:10:18.622Z,13.35
2022-11-12T10:12:50.644Z,14.40
2022-11-12T10:15:51.480Z,13.77
2022-11-12T10:18:44.024Z,14.20
2022-11-12T10:21:31.309Z,16.13
2022-11-12T10:23:58.608Z,15.20
2022-11-12T10:26:26.810Z,14.57
2022-11-12T10:29:01.809Z,13.80
2022-11-12T10:31:28.659Z,13.57
2022-11-12T10:34:08.069Z,13.23
2022-11-12T10:36:36.467Z,12.80
2022-11-12T10:39:03.549Z,13.93
2022-11-12T10:41:34.526Z,12.57
2022-11-12T10:44:03.323Z,12.02
2022-11-12T10:46:35.615Z,11.70
2022-11-12T10:49:08.294Z,10.00
2022-11-12T10:51:37.220Z,12.18
2022-11-12T10:54:26.881Z,11.13
2022-11-12T10:56:55.621Z,10.68
2022-11-12T10:59:24.202Z,10.90
2022-11-12T11:01:56.725Z,10.20
2022-11-12T11:04:30.342Z,10.35
2022-11-12T11:07:07.798Z,10.32
2022-11-12T11:09:34.848Z,10.18
2022-11-12T11:12:01.767Z,10.63
2022-11-12T11:14:31.844Z,10.15
2022-11-12T11:17:08.732Z,9.10
2022-11-12T11:19:36.872Z,8.32
2022-11-12T11:22:26.584Z,7.65
2022-11-12T11:25:05.071Z,7.53
2022-11-12T11:27:40.595Z,7.10
2022-11-12T11:30:19.811Z,7.15
2022-11-12T11:32:55.480Z,7.20
2022-11-12T11:36:04.154Z,7.30
2022-11-12T11:38:49.629Z,7.38
2022-11-12T11:41:34.856Z,6.50
2022-11-12T11:44:25.750Z,6.25
2022-11-12T11:47:13.285Z,6.53
2022-11-12T11:49:58.454Z,7.45
2022-11-12T11:52:37.583Z,6.68
2022-11-12T11:55:19.200Z,6.68
2022-11-12T11:57:55.035Z,5.97
2022-11-12T12:00:23.944Z,7.38
2022-11-12T12:03:12.330Z,7.50
2022-11-12T12:05:48.023Z,8.70
2022-11-12T12:08:36.723Z,9.40
2022-11-12T12:11:11.820Z,11.30
2022-11-12T12:14:19.827Z,10.88
2022-11-12T12:17:08.333Z,10.80
2022-11-12T12:20:26.825Z,11.77
2022-11-12T12:22:58.138Z,9.00
2022-11-12T12:25:31.123Z,9.32
2022-11-12T12:28:16.638Z,9.07
2022-11-12T12:30:48.921Z,9.40
2022-11-12T12:33:32.750Z,9.18
2022-11-12T12:36:24.067Z,8.90
2022-11-12T12:38:55.721Z,8.95
2022-11-12T12:41:34.281Z,9.20
2022-11-12T12:44:06.302Z,8.60
2022-11-12T12:46:39.432Z,8.57
2022-11-12T12:49:07.683Z,9.00
2022-11-12T12:51:34.924Z,8.63
2022-11-12T12:54:01.969Z,7.75
2022-11-12T12:56:31.488Z,8.75
2022-11-12T12:59:03.824Z,9.15
2022-11-12T13:01:34.676Z,9.25
2022-11-12T13:04:04.492Z,8.98
2022-11-12T13:06:35.089Z,9.23
2022-11-12T13:09:24.264Z,8.75
2022-11-12T13:12:05.546Z,8.88
2022-11-12T13:14:34.936Z,8.90
2022-11-12T13:17:07.455Z,8.40
2022-11-12T13:20:10.439Z,8.57
2022-11-12T13:22:40.151Z,9.35
2022-11-12T13:25:12.431Z,8.38
2022-11-12T13:27:44.803Z,10.20
2022-11-12T13:30:14.298Z,11.05
2022-11-12T13:32:48.041Z,9.38
2022-11-12T13:35:22.575Z,9.32
2022-11-12T13:38:07.951Z,9.75
2022-11-12T13:40:43.544Z,9.45
2022-11-12T13:43:15.837Z,10.20
2022-11-12T13:45:51.052Z,9.07
2022-11-12T13:48:28.032Z,9.70
2022-11-12T13:51:01.321Z,9.43
2022-11-12T13:53:29.247Z,8.85
2022-11-12T13:55:56.126Z,8.90
2022-11-12T13:58:35.878Z,8.95
2022-11-12T14:01:04.332Z,9.05
2022-11-12T14:03:57.415Z,9.40
2022-11-12T14:06:37.930Z,8.70
2022-11-12T14:09:46.712Z,7.75
2022-11-12T14:12:34.764Z,8.30
2022-11-12T14:15:13.466Z,7.53
2022-11-12T14:17:51.894Z,7.95
2022-11-12T14:20:44.732Z,7.70
2022-11-12T14:23:21.587Z,8.63
2022-11-12T14:25:53.275Z,7.57
2022-11-12T14:28:36.596Z,8.18
2022-11-12T14:31:04.477Z,8.15
2022-11-12T14:33:32.438Z,7.93
2022-11-12T14:36:02.209Z,7.53
2022-11-12T14:38:49.777Z,8.73
2022-11-12T14:41:30.519Z,8.30
2022-11-12T14:44:12.593Z,8.02
2022-11-12T14:46:48.338Z,8.32
2022-11-12T14:49:38.343Z,9.35
2022-11-12T14:52:22.307Z,9.00
2022-11-12T14:54:51.604Z,8.77
2022-11-12T14:57:25.207Z,8.00
2022-11-12T14:59:51.871Z,8.48
2022-11-12T15:02:39.057Z,8.18
2022-11-12T15:05:21.006Z,9.23
2022-11-12T15:07:57.426Z,8.85
2022-11-12T15:10:41.095Z,9.07
2022-11-12T15:13:21.766Z,8.48
2022-11-12T15:15:55.332Z,7.28
2022-11-12T15:18:25.057Z,8.50
2022-11-12T15:21:08.161Z,8.77
2022-11-12T15:23:35.178Z,8.15
2022-11-12T15:26:02.017Z,8.48
2022-11-12T15:28:28.859Z,8.98
2022-11-12T15:31:21.033Z,9.00
2022-11-12T15:33:47.799Z,9.60
2022-11-12T15:36:19.055Z,9.68
2022-11-12T15:38:53.228Z,9.35
2022-11-12T15:41:30.122Z,9.20
2022-11-12T15:43:57.193Z,9.10
2022-11-12T15:46:23.820Z,9.90
2022-11-12T15:48:55.757Z,9.18
2022-11-12T15:51:23.216Z,9.48
2022-11-12T15:53:49.902Z,10.38
2022-11-12T15:56:18.196Z,9.60
2022-11-12T15:58:45.186Z,9.50
2022-11-12T16:01:12.642Z,9.75
2022-11-12T16:03:39.440Z,10.15
2022-11-12T16:06:09.299Z,10.45
2022-11-12T16:08:36.273Z,9.73
2022-11-12T16:11:03.181Z,10.38
2022-11-12T16:13:32.277Z,9.88
2022-11-12T16:15:59.635Z,9.55
2022-11-12T16:18:26.327Z,9.43
2022-11-12T16:20:53.317Z,10.68
2022-11-12T16:23:20.017Z,11.32
2022-11-12T16:25:47.065Z,10.23
2022-11-12T16:28:15.853Z,10.65
2022-11-12T16:30:43.234Z,10.02
2022-11-12T16:33:11.333Z,10.68
2022-11-12T16:35:38.221Z,10.52
2022-11-12T16:38:12.745Z,10.95
2022-11-12T16:40:40.337Z,10.48
2022-11-12T16:43:07.158Z,11.68
2022-11-12T16:45:36.180Z,10.23
2022-11-12T16:48:10.767Z,10.82
2022-11-12T16:50:37.438Z,11.15
2022-11-12T16:53:04.099Z,11.15
2022-11-12T16:55:31.780Z,10.52
2022-11-12T16:57:58.341Z,11.68
2022-11-12T17:00:25.076Z,11.43
2022-11-12T17:02:53.555Z,11.07
2022-11-12T17:05:23.150Z,11.00
2022-11-12T17:07:50.667Z,12.68
2022-11-12T17:10:17.676Z,11.60
2022-11-12T17:12:48.744Z,12.15
2022-11-12T17:15:15.495Z,11.50
2022-11-12T17:17:42.607Z,12.15
2022-11-12T17:20:10.092Z,12.10
2022-11-12T17:22:37.218Z,13.55
2022-11-12T17:25:04.466Z,13.20
2022-11-12T17:27:31.167Z,12.80
2022-11-12T17:29:57.899Z,12.35
2022-11-12T17:32:24.856Z,12.63
2022-11-12T17:34:51.458Z,12.65
2022-11-12T17:37:18.063Z,10.88
2022-11-12T17:39:44.759Z,13.40
2022-11-12T17:42:11.385Z,12.85
2022-11-12T17:44:38.072Z,12.38
2022-11-12T17:47:04.872Z,13.60
2022-11-12T17:49:31.570Z,13.63
2022-11-12T17:51:58.301Z,13.48
2022-11-12T17:54:27.627Z,13.93
2022-11-12T17:56:54.387Z,14.23
2022-11-12T17:59:21.093Z,13.88
2022-11-12T18:01:47.732Z,14.80
2022-11-12T18:04:15.593Z,15.25
2022-11-12T18:06:42.366Z,13.77
2022-11-12T18:09:16.591Z,13.55
2022-11-12T18:11:49.845Z,12.52
2022-11-12T18:14:17.106Z,13.38
2022-11-12T18:16:44.052Z,15.13
2022-11-12T18:19:11.369Z,12.95
2022-11-12T18:21:41.212Z,14.82
2022-11-12T18:24:13.385Z,14.40
2022-11-12T18:26:40.116Z,14.20
2022-11-12T18:29:08.023Z,15.55
2022-11-12T18:31:34.832Z,15.02
2022-11-12T18:34:01.517Z,14.50
2022-11-12T18:36:28.713Z,13.93
2022-11-12T18:38:55.902Z,15.32
2022-11-12T18:41:26.043Z,15.93
2022-11-12T18:43:56.630Z,16.33
2022-11-12T18:46:23.865Z,15.98
2022-11-12T18:48:50.941Z,15.43
2022-11-12T18:51:18.984Z,17.65
2022-11-12T18:53:46.337Z,15.60
2022-11-12T18:56:17.783Z,16.60
2022-11-12T18:58:44.535Z,16.05
2022-11-12T19:01:16.199Z,17.20
2022-11-12T19:03:43.183Z,16.98
2022-11-12T19:06:12.589Z,17.98
2022-11-12T19:08:39.680Z,17.10
2022-11-12T19:11:08.778Z,16.95
2022-11-12T19:13:39.103Z,18.35
2022-11-12T19:16:14.170Z,17.05
2022-11-12T19:18:42.206Z,15.80
2022-11-12T19:21:11.127Z,16.67
2022-11-12T19:23:38.556Z,16.88
2022-11-12T19:26:07.150Z,17.95
2022-11-12T19:28:35.416Z,17.88
2022-11-12T19:31:13.127Z,18.20
2022-11-12T19:33:42.417Z,17.42
2022-11-12T19:36:11.298Z,17.60
2022-11-12T19:38:38.211Z,17.88
2022-11-12T19:41:08.106Z,18.23
2022-11-12T19:43:34.800Z,18.23
2022-11-12T19:46:01.964Z,18.67
2022-11-12T19:48:29.217Z,18.35
2022-11-12T19:51:01.214Z,17.45
2022-11-12T19:53:38.704Z,17.90
2022-11-12T19:56:06.765Z,17.60
2022-11-12T19:58:34.360Z,17.20
2022-11-12T20:01:09.651Z,18.70
2022-11-12T20:03:37.392Z,19.70
2022-11-12T20:06:06.211Z,19.40
2022-11-12T20:08:33.356Z,18.30
2022-11-12T20:11:03.149Z,19.38
2022-11-12T20:13:30.195Z,19.38
2022-11-12T20:15:57.054Z,18.35
2022-11-12T20:18:24.359Z,18.95
2022-11-12T20:20:53.824Z,19.13
2022-11-12T20:23:21.035Z,19.02
2022-11-12T20:25:47.834Z,19.08
2022-11-12T20:28:14.535Z,20.30
2022-11-12T20:30:41.315Z,20.10
2022-11-12T20:33:08.124Z,19.17
2022-11-12T20:35:37.843Z,19.65
2022-11-12T20:38:05.066Z,19.05
2022-11-12T20:40:32.735Z,20.30
2022-11-12T20:42:59.580Z,19.95
2022-11-12T20:45:27.348Z,20.58
2022-11-12T20:47:56.280Z,18.63
2022-11-12T20:50:23.482Z,19.30
2022-11-12T20:52:50.333Z,18.67
2022-11-12T20:55:17.377Z,18.77
2022-11-12T20:57:44.234Z,18.92
2022-11-12T21:00:14.134Z,19.02
2022-11-12T21:02:43.436Z,19.60
2022-11-12T21:05:10.183Z,19.05
2022-11-12T21:07:39.583Z,19.80
2022-11-12T21:10:06.775Z,20.33
2022-11-12T21:12:33.775Z,19.83
2022-11-12T21:15:00.616Z,17.73
2022-11-12T21:17:27.355Z,19.13
2022-11-12T21:19:56.458Z,18.42
2022-11-12T21:22:23.393Z,17.83
2022-11-12T21:24:50.156Z,18.15
2022-11-12T21:27:17.077Z,18.45
2022-11-12T21:29:44.135Z,18.95
2022-11-12T21:32:10.977Z,20.50
2022-11-12T21:34:37.607Z,19.35
2022-11-12T21:37:04.360Z,19.67
2022-11-12T21:39:30.992Z,19.02
2022-11-12T21:41:57.831Z,20.38
2022-11-12T21:44:24.568Z,18.88
2022-11-12T21:46:51.207Z,18.63
2022-11-12T21:49:17.948Z,19.83
2022-11-12T21:51:44.680Z,21.23
2022-11-12T21:54:12.446Z,19.80
2022-11-12T21:56:40.325Z,20.20
2022-11-12T21:59:07.143Z,19.25
2022-11-12T22:01:34.662Z,19.55
2022-11-12T22:04:06.048Z,18.90
2022-11-12T22:06:36.518Z,19.02
2022-11-12T22:09:03.855Z,18.90
2022-11-12T22:11:31.109Z,18.92
2022-11-12T22:13:57.761Z,19.60
2022-11-12T22:16:27.272Z,18.15
2022-11-12T22:18:55.648Z,18.05
2022-11-12T22:21:24.575Z,17.83
2022-11-12T22:23:51.370Z,18.75
2022-11-12T22:26:25.380Z,17.58
2022-11-12T22:28:53.113Z,16.65
2022-11-12T22:31:24.540Z,17.75
2022-11-12T22:33:51.488Z,17.10
2022-11-12T22:36:23.242Z,17.48
2022-11-12T22:38:52.497Z,17.40
2022-11-12T22:41:21.230Z,16.20
2022-11-12T22:43:49.092Z,15.90
2022-11-12T22:46:18.162Z,16.85
2022-11-12T22:48:45.184Z,16.52
2022-11-12T22:51:22.893Z,17.23
2022-11-12T22:54:03.215Z,17.65
2022-11-12T22:56:30.155Z,16.00
2022-11-12T22:58:58.167Z,16.25
2022-11-12T23:01:35.691Z,17.45
2022-11-12T23:04:05.153Z,17.38
2022-11-12T23:06:32.075Z,16.45
2022-11-12T23:08:59.469Z,17.60
2022-11-12T23:11:26.474Z,16.40
2022-11-12T23:13:54.484Z,17.83
2022-11-12T23:16:24.357Z,17.52
2022-11-12T23:18:52.408Z,17.05
2022-11-12T23:21:22.056Z,18.02
2022-11-12T23:23:48.830Z,17.25
2022-11-12T23:26:21.438Z,18.73
2022-11-12T23:28:48.333Z,18.63
2022-11-12T23:31:17.650Z,18.98
2022-11-12T23:33:57.554Z,17.88
2022-11-12T23:36:25.470Z,19.70
2022-11-12T23:38:52.260Z,16.35
2022-11-12T23:41:23.010Z,17.10
2022-11-12T23:43:50.360Z,17.67
2022-11-12T23:46:17.236Z,17.60
2022-11-12T23:48:44.024Z,17.75
2022-11-12T23:51:13.076Z,16.38
2022-11-12T23:53:40.245Z,15.45
2022-11-12T23:56:09.524Z,15.95
2022-11-12T23:58:37.474Z,17.52
